Koushinmaru No.5 — JL6695 — position and weather

sailwx.info

Track history (hours):
 
Tides and Currents Weather Stations Pressure Air Temp Water Temp Dewpoint Dewpoint Depression Visibility Wind Speed Wind Dir Waves Ship Positions

Koushinmaru No.5

Last reported at 2017-Nov-23 02:56 UTC. Time now 2017-Nov-23 09:37 UTC.
Position N 34°37' E 135°01'.

Length 75 m; draft 5 m.

Type: Cargo ship. MMSI: 431301703.

Date/timePositionNaut miles runAvg speedWind from/ knotsBaromVisibWave heightAir tempDewpointWater temp
2017-Nov-23 02:56N 34°37' E 135°01'512.1
2017-Nov-23 02:30N 34°36' E 135°07'612.4
2017-Nov-23 02:00N 34°36' E 135°15'611.7
2017-Nov-23 01:30N 34°37' E 135°22'5 9.1
2017-Nov-23 01:00N 34°40' E 135°27'0 0.6
2017-Nov-23 00:29N 34°40' E 135°27'0 0.0
2017-Nov-22 23:51N 34°40' E 135°27'0 0.0
2017-Nov-22 23:30N 34°40' E 135°27'0 0.0
2017-Nov-22 22:59N 34°40' E 135°27'0 0.0
2017-Nov-22 22:29N 34°40' E 135°27'0 0.0
2017-Nov-22 21:45N 34°40' E 135°27'  
2017-Nov-17 02:30N 34°37' E 135°02'510.4
2017-Nov-17 02:00N 34°33' E 135°05'612.3
2017-Nov-17 01:29N 34°27' E 135°04'1011.9
2017-Nov-17 00:40N 34°18' E 134°59'313.0
2017-Nov-17 00:27N 34°15' E 134°59'612.9
2017-Nov-17 00:00N 34°09' E 134°60'  
Track history (hours):
 
Tides and Currents Weather Stations Pressure Air Temp Water Temp Dewpoint Dewpoint Depression Visibility Wind Speed Wind Dir Waves Ship Positions

Koushinmaru No.5

Last reported at 2017-Nov-23 02:56 UTC. Time now 2017-Nov-23 09:37 UTC.
Position N 34°37' E 135°01'.

Length 75 m; draft 5 m.

Type: Cargo ship. MMSI: 431301703.

Date/timePositionNaut miles runAvg speedWind from/ knotsBaromVisibWave heightAir tempDewpointWater temp
2017-Nov-23 02:56N 34°37' E 135°01'512.1
2017-Nov-23 02:30N 34°36' E 135°07'612.4
2017-Nov-23 02:00N 34°36' E 135°15'611.7
2017-Nov-23 01:30N 34°37' E 135°22'5 9.1
2017-Nov-23 01:00N 34°40' E 135°27'0 0.6
2017-Nov-23 00:29N 34°40' E 135°27'0 0.0
2017-Nov-22 23:51N 34°40' E 135°27'0 0.0
2017-Nov-22 23:30N 34°40' E 135°27'0 0.0
2017-Nov-22 22:59N 34°40' E 135°27'0 0.0
2017-Nov-22 22:29N 34°40' E 135°27'0 0.0
2017-Nov-22 21:45N 34°40' E 135°27'  
2017-Nov-17 02:30N 34°37' E 135°02'510.4
2017-Nov-17 02:00N 34°33' E 135°05'612.3
2017-Nov-17 01:29N 34°27' E 135°04'1011.9
2017-Nov-17 00:40N 34°18' E 134°59'313.0
2017-Nov-17 00:27N 34°15' E 134°59'612.9
2017-Nov-17 00:00N 34°09' E 134°60'  

Dump ship's entire track history